Time;durP1;ratioP1;P1;durP2;ratioP2;P2;SDS_P1;SDS_P2;PMS_P1;PMS_P2;Temp;Humidity;BMP_temperature;BMP_pressure;BME280_temperature;BME280_humidity;BME280_pressure;Samples;Min_cycle;Max_cycle;Signal;HPM_P1;HPM_P2
2023/05/15 00:00:47;;;;;;;1.20;1.20;;;;;;;;;;5003233;28;20045;-75
2023/05/15 00:03:16;;;;;;;0.73;0.63;;;;;;;;;;5005824;28;20058;-76
2023/05/15 00:05:44;;;;;;;0.95;0.95;;;;;;;;;;5008799;28;20232;-75
2023/05/15 00:08:11;;;;;;;0.90;0.90;;;;;;;;;;5000749;28;20079;-76
2023/05/15 00:10:39;;;;;;;0.80;0.80;;;;;;;;;;4994992;28;21936;-76
2023/05/15 00:13:19;;;;;;;0.80;0.80;;;;;;;;;;4992947;28;20041;-76
2023/05/15 00:15:47;;;;;;;0.73;0.63;;;;;;;;;;4997708;28;20126;-75
2023/05/15 00:18:15;;;;;;;1.00;1.00;;;;;;;;;;5000704;28;20054;-76
2023/05/15 00:20:42;;;;;;;1.00;1.00;;;;;;;;;;5000471;28;20121;-75
2023/05/15 00:23:10;;;;;;;0.85;0.85;;;;;;;;;;4999308;28;20079;-75
2023/05/15 00:25:37;;;;;;;0.95;0.95;;;;;;;;;;4998450;28;20079;-77
2023/05/15 00:28:05;;;;;;;1.40;0.80;;;;;;;;;;4999246;28;20502;-76
2023/05/15 00:30:32;;;;;;;0.80;0.80;;;;;;;;;;5000047;28;20072;-76
2023/05/15 00:33:00;;;;;;;1.40;0.80;;;;;;;;;;4999334;28;20038;-77
2023/05/15 00:35:28;;;;;;;0.90;0.90;;;;;;;;;;5002874;28;20041;-76
2023/05/15 00:37:57;;;;;;;0.80;0.80;;;;;;;;;;4988440;28;20496;-75
2023/05/15 00:40:25;;;;;;;0.70;0.70;;;;;;;;;;4974740;28;20443;-76
2023/05/15 00:42:52;;;;;;;0.80;0.80;;;;;;;;;;5004787;28;20134;-76
2023/05/15 00:45:21;;;;;;;0.73;0.73;;;;;;;;;;5009422;28;20057;-76
2023/05/15 00:47:49;;;;;;;0.70;0.70;;;;;;;;;;4982798;28;20038;-76
2023/05/15 00:50:17;;;;;;;0.70;0.70;;;;;;;;;;5002856;28;20061;-76
2023/05/15 00:52:45;;;;;;;0.70;0.70;;;;;;;;;;5005735;28;20073;-76
2023/05/15 00:55:13;;;;;;;1.15;1.02;;;;;;;;;;5002687;28;20416;-76
2023/05/15 00:57:41;;;;;;;0.90;0.90;;;;;;;;;;5008279;28;20065;-75
2023/05/15 01:00:09;;;;;;;0.95;0.95;;;;;;;;;;5009291;28;20048;-76
2023/05/15 01:02:37;;;;;;;0.90;0.90;;;;;;;;;;5005023;28;20042;-76
2023/05/15 01:05:07;;;;;;;0.82;0.82;;;;;;;;;;5020124;28;20049;-76
2023/05/15 01:07:40;;;;;;;0.70;0.70;;;;;;;;;;5004389;28;20042;-77
2023/05/15 01:10:08;;;;;;;0.80;0.80;;;;;;;;;;5007866;28;20122;-75
2023/05/15 01:12:36;;;;;;;0.80;0.80;;;;;;;;;;4990218;28;20044;-76
2023/05/15 01:15:04;;;;;;;0.80;0.80;;;;;;;;;;5003117;28;20445;-76
2023/05/15 01:17:31;;;;;;;0.73;0.73;;;;;;;;;;5010097;28;20060;-76
2023/05/15 01:20:00;;;;;;;0.90;0.90;;;;;;;;;;4997163;28;20042;-76
2023/05/15 01:22:42;;;;;;;1.00;1.00;;;;;;;;;;5010455;28;20049;-76
2023/05/15 01:25:22;;;;;;;1.00;1.00;;;;;;;;;;5010973;28;20042;-76
2023/05/15 01:28:00;;;;;;;1.02;1.02;;;;;;;;;;5005074;28;20046;-77
2023/05/15 01:30:34;;;;;;;0.88;0.88;;;;;;;;;;4993406;28;20045;-76
2023/05/15 01:33:20;;;;;;;0.90;0.90;;;;;;;;;;5018771;28;20258;-76
2023/05/15 01:36:08;;;;;;;1.23;0.98;;;;;;;;;;4993079;28;20543;-77
2023/05/15 01:38:44;;;;;;;1.00;1.00;;;;;;;;;;5005048;28;20073;-77
2023/05/15 01:41:24;;;;;;;0.82;0.82;;;;;;;;;;5021260;23;20551;-85
2023/05/15 01:44:47;;;;;;;1.02;0.90;;;;;;;;;;5004463;28;20046;-85
2023/05/15 01:47:55;;;;;;;0.80;0.80;;;;;;;;;;5013639;28;20045;-85
2023/05/15 01:51:23;;;;;;;0.80;0.80;;;;;;;;;;4984373;28;20065;-85
2023/05/15 01:54:34;;;;;;;0.80;0.80;;;;;;;;;;4989223;28;20046;-85
2023/05/15 02:01:02;;;;;;;0.80;0.80;;;;;;;;;;4967948;28;20053;-84
2023/05/15 02:03:48;;;;;;;0.60;0.60;;;;;;;;;;4976335;28;20054;-85
2023/05/15 02:06:56;;;;;;;0.60;0.60;;;;;;;;;;4990060;28;20046;-85
2023/05/15 02:10:10;;;;;;;0.80;0.80;;;;;;;;;;4982695;28;20058;-86
2023/05/15 02:13:18;;;;;;;0.80;0.80;;;;;;;;;;4959972;28;20074;-85
2023/05/15 02:16:12;;;;;;;0.90;0.90;;;;;;;;;;4984193;28;20046;-85
2023/05/15 02:19:28;;;;;;;0.68;0.68;;;;;;;;;;4972010;28;20066;-85
2023/05/15 02:22:05;;;;;;;0.75;0.75;;;;;;;;;;4974343;28;20074;-85
2023/05/15 02:24:48;;;;;;;1.00;1.00;;;;;;;;;;4964403;28;20085;-85
2023/05/15 02:27:56;;;;;;;;;;;;;;;;;;;;;
2023/05/15 02:31:28;;;;;;;0.80;0.80;;;;;;;;;;4927887;29;20055;-85
2023/05/15 02:35:16;;;;;;;0.80;0.80;;;;;;;;;;4931222;29;20579;-85
2023/05/15 02:38:13;;;;;;;0.90;0.90;;;;;;;;;;4921618;29;20162;-86
2023/05/15 02:41:20;;;;;;;1.00;1.00;;;;;;;;;;4930686;28;20049;-86
2023/05/15 02:44:58;;;;;;;0.85;0.85;;;;;;;;;;4915524;29;20144;-85
2023/05/15 02:47:49;;;;;;;0.80;0.80;;;;;;;;;;4914812;29;20062;-85
2023/05/15 02:50:37;;;;;;;0.82;0.82;;;;;;;;;;4934795;29;20072;-85
2023/05/15 02:53:54;;;;;;;1.00;1.00;;;;;;;;;;4889459;29;20054;-84
2023/05/15 02:59:56;;;;;;;;;;;;;;;;;;;;;
2023/05/15 03:02:46;;;;;;;0.98;0.98;;;;;;;;;;4981620;28;20133;-85
2023/05/15 03:05:47;;;;;;;0.90;0.90;;;;;;;;;;4984737;28;20672;-85
2023/05/15 03:08:58;;;;;;;0.88;0.88;;;;;;;;;;4962024;28;20061;-84
2023/05/15 03:12:05;;;;;;;0.90;0.90;;;;;;;;;;4985263;28;20046;-85
2023/05/15 03:15:28;;;;;;;1.10;1.02;;;;;;;;;;5013161;28;20042;-85
2023/05/15 03:18:54;;;;;;;1.35;1.25;;;;;;;;;;4985943;28;20106;-85
2023/05/15 03:22:16;;;;;;;1.00;1.00;;;;;;;;;;4984080;28;20048;-85
2023/05/15 03:25:54;;;;;;;1.00;1.00;;;;;;;;;;4978729;28;20305;-85
2023/05/15 03:29:24;;;;;;;0.98;0.98;;;;;;;;;;4987332;28;20531;-84
2023/05/15 03:32:18;;;;;;;1.00;1.00;;;;;;;;;;4983766;28;20042;-85
2023/05/15 03:35:15;;;;;;;0.82;0.82;;;;;;;;;;4971611;28;20046;-85
2023/05/15 03:38:15;;;;;;;0.80;0.80;;;;;;;;;;4970850;28;20073;-85
2023/05/15 03:41:12;;;;;;;0.80;0.80;;;;;;;;;;4954599;28;20132;-84
2023/05/15 03:44:37;;;;;;;1.00;1.00;;;;;;;;;;4953603;28;20058;-85
2023/05/15 03:47:48;;;;;;;;;;;;;;;;;;;;;
2023/05/15 03:50:39;;;;;;;2.30;2.20;;;;;;;;;;4966435;28;20054;-85
2023/05/15 03:53:28;;;;;;;5.75;5.35;;;;;;;;;;4970677;28;20057;-84
2023/05/15 03:56:15;;;;;;;3.97;3.67;;;;;;;;;;4986123;28;20035;-85
2023/05/15 03:58:53;;;;;;;2.50;2.40;;;;;;;;;;4968303;28;20043;-85
2023/05/15 04:01:44;;;;;;;1.67;1.67;;;;;;;;;;4986836;28;20051;-88
2023/05/15 04:04:37;;;;;;;1.40;1.38;;;;;;;;;;4971673;28;20748;-85
2023/05/15 04:07:42;;;;;;;1.83;1.40;;;;;;;;;;4986973;28;20046;-85
2023/05/15 04:10:57;;;;;;;1.15;1.15;;;;;;;;;;4984012;28;20185;-85
2023/05/15 04:13:53;;;;;;;1.20;1.20;;;;;;;;;;4983015;28;20049;-84
2023/05/15 04:16:51;;;;;;;1.33;1.30;;;;;;;;;;4973561;28;20129;-85
2023/05/15 04:19:39;;;;;;;;;;;;;;;;;;;;;
2023/05/15 04:22:43;;;;;;;1.23;1.20;;;;;;;;;;4988868;28;20117;-86
2023/05/15 04:25:57;;;;;;;1.50;1.40;;;;;;;;;;4993947;28;20241;-86
2023/05/15 04:29:30;;;;;;;1.33;1.33;;;;;;;;;;4986291;28;20059;-87
2023/05/15 04:32:23;;;;;;;1.63;1.52;;;;;;;;;;5006384;28;20034;-86
2023/05/15 04:35:30;;;;;;;1.10;1.10;;;;;;;;;;4988394;28;20496;-86
2023/05/15 04:38:40;;;;;;;1.50;1.40;;;;;;;;;;4982280;28;20176;-87
2023/05/15 04:41:35;;;;;;;3.08;1.33;;;;;;;;;;4964734;28;20050;-86
2023/05/15 04:44:32;;;;;;;1.50;1.40;;;;;;;;;;4970899;28;20601;-86
2023/05/15 04:47:19;;;;;;;1.55;1.50;;;;;;;;;;4953600;28;20400;-88
2023/05/15 04:50:20;;;;;;;1.70;1.60;;;;;;;;;;4969349;23;20398;-74
2023/05/15 04:52:49;;;;;;;2.05;1.95;;;;;;;;;;4975940;28;20110;-74
2023/05/15 04:55:17;;;;;;;1.30;1.30;;;;;;;;;;4970308;28;20049;-74
2023/05/15 04:57:46;;;;;;;1.52;1.42;;;;;;;;;;4967107;28;20039;-75
2023/05/15 05:00:15;;;;;;;1.83;1.40;;;;;;;;;;4974013;28;20053;-74
2023/05/15 05:02:44;;;;;;;1.40;1.30;;;;;;;;;;4969834;28;20043;-74
2023/05/15 05:05:16;;;;;;;1.30;1.30;;;;;;;;;;4961349;28;20121;-74
2023/05/15 05:07:45;;;;;;;;;;;;;;;;;;4965967;28;20054;-74
2023/05/15 05:10:13;;;;;;;1.35;1.25;;;;;;;;;;4944988;28;19926;-74
2023/05/15 05:12:41;;;;;;;1.50;1.50;;;;;;;;;;4962621;28;20117;-73
2023/05/15 05:15:10;;;;;;;1.60;1.55;;;;;;;;;;4965399;28;20042;-73
2023/05/15 05:17:38;;;;;;;1.80;1.70;;;;;;;;;;4973361;28;20050;-74
2023/05/15 05:20:09;;;;;;;1.70;1.60;;;;;;;;;;4965432;28;20050;-74
2023/05/15 05:22:41;;;;;;;1.80;1.70;;;;;;;;;;4969550;28;20049;-74
2023/05/15 05:25:09;;;;;;;2.00;1.90;;;;;;;;;;4965191;28;20060;-73
2023/05/15 05:27:38;;;;;;;1.40;1.40;;;;;;;;;;4970822;28;20047;-73
2023/05/15 05:30:07;;;;;;;1.55;1.50;;;;;;;;;;4968844;28;20058;-73
2023/05/15 05:32:36;;;;;;;1.40;1.30;;;;;;;;;;4972000;28;20059;-73
2023/05/15 05:35:05;;;;;;;1.60;1.50;;;;;;;;;;4952558;28;20034;-74
2023/05/15 05:37:34;;;;;;;1.73;1.63;;;;;;;;;;4967619;28;20068;-73
2023/05/15 05:40:05;;;;;;;1.90;1.60;;;;;;;;;;4973829;28;20057;-74
2023/05/15 05:42:35;;;;;;;1.80;1.70;;;;;;;;;;4951615;28;20038;-73
2023/05/15 05:45:04;;;;;;;2.05;1.85;;;;;;;;;;4968980;28;20106;-74
2023/05/15 05:47:33;;;;;;;1.70;1.70;;;;;;;;;;4964933;28;20069;-73
2023/05/15 05:50:02;;;;;;;1.70;1.60;;;;;;;;;;4970118;28;20762;-73
2023/05/15 05:52:31;;;;;;;1.30;1.23;;;;;;;;;;4979086;28;20576;-73
2023/05/15 05:54:59;;;;;;;1.40;1.30;;;;;;;;;;4947911;28;20043;-73
2023/05/15 05:57:27;;;;;;;1.80;1.42;;;;;;;;;;4973053;28;20053;-74
2023/05/15 05:59:55;;;;;;;1.50;1.50;;;;;;;;;;4965058;28;20054;-73
2023/05/15 06:02:24;;;;;;;1.42;1.40;;;;;;;;;;4964020;28;20718;-73
2023/05/15 06:04:53;;;;;;;1.40;1.30;;;;;;;;;;4966546;28;20053;-73
2023/05/15 06:07:21;;;;;;;1.75;1.17;;;;;;;;;;4967586;28;20603;-74
2023/05/15 06:09:48;;;;;;;1.98;1.40;;;;;;;;;;4973390;28;20074;-73
2023/05/15 06:12:16;;;;;;;1.52;1.45;;;;;;;;;;4943402;29;20075;-73
2023/05/15 06:14:43;;;;;;;1.30;1.20;;;;;;;;;;4967539;28;20485;-73
2023/05/15 06:17:10;;;;;;;1.27;1.23;;;;;;;;;;4977497;28;20054;-73
2023/05/15 06:19:38;;;;;;;1.30;1.30;;;;;;;;;;4968405;28;20089;-74
2023/05/15 06:22:05;;;;;;;1.30;1.30;;;;;;;;;;4968357;28;20130;-73
2023/05/15 06:24:33;;;;;;;1.90;1.50;;;;;;;;;;4968459;28;20429;-74
2023/05/15 06:27:00;;;;;;;1.60;1.50;;;;;;;;;;4968057;28;20038;-73
2023/05/15 06:29:27;;;;;;;1.40;1.30;;;;;;;;;;4957387;28;20043;-74
2023/05/15 06:31:55;;;;;;;1.40;1.40;;;;;;;;;;4969062;28;20081;-73
2023/05/15 06:34:22;;;;;;;1.20;1.20;;;;;;;;;;4973537;28;20315;-73
2023/05/15 06:36:51;;;;;;;1.80;1.70;;;;;;;;;;4969926;28;20034;-73
2023/05/15 06:39:18;;;;;;;1.60;1.40;;;;;;;;;;4968091;28;20058;-73
2023/05/15 06:41:46;;;;;;;1.50;1.50;;;;;;;;;;4967439;28;20501;-73
2023/05/15 06:44:13;;;;;;;1.50;1.45;;;;;;;;;;4966230;28;20421;-73
2023/05/15 06:46:40;;;;;;;1.30;1.30;;;;;;;;;;4949955;28;20050;-74
2023/05/15 06:49:08;;;;;;;1.00;1.00;;;;;;;;;;4966416;28;20057;-73
2023/05/15 06:51:35;;;;;;;1.00;1.00;;;;;;;;;;4966796;28;20046;-73
2023/05/15 06:54:02;;;;;;;1.63;1.60;;;;;;;;;;4967270;28;20042;-73
2023/05/15 06:56:30;;;;;;;1.48;1.48;;;;;;;;;;4966644;28;20046;-73
2023/05/15 06:58:57;;;;;;;2.10;2.00;;;;;;;;;;4950779;28;20039;-73
2023/05/15 07:01:25;;;;;;;1.30;1.30;;;;;;;;;;4969156;28;20042;-73
2023/05/15 07:03:53;;;;;;;1.33;1.33;;;;;;;;;;4970576;28;20043;-73
2023/05/15 07:06:20;;;;;;;1.23;1.23;;;;;;;;;;4973497;28;20129;-73
2023/05/15 07:08:48;;;;;;;1.45;1.45;;;;;;;;;;4972872;28;20065;-73
2023/05/15 07:11:15;;;;;;;1.48;1.38;;;;;;;;;;4967104;28;20867;-73
2023/05/15 07:13:43;;;;;;;1.33;1.30;;;;;;;;;;4950485;28;20043;-73
2023/05/15 07:16:10;;;;;;;1.40;1.30;;;;;;;;;;4965090;28;20051;-73
2023/05/15 07:18:37;;;;;;;1.40;1.40;;;;;;;;;;4974286;28;20053;-73
2023/05/15 07:21:06;;;;;;;1.20;1.20;;;;;;;;;;4972608;28;20050;-74
2023/05/15 07:23:34;;;;;;;1.30;1.30;;;;;;;;;;4964090;28;20039;-73
2023/05/15 07:26:01;;;;;;;1.15;1.15;;;;;;;;;;4963813;28;20054;-73
2023/05/15 07:28:28;;;;;;;1.70;1.60;;;;;;;;;;4945453;28;20077;-73
2023/05/15 07:30:56;;;;;;;1.42;1.33;;;;;;;;;;4962394;28;20062;-73
2023/05/15 07:33:23;;;;;;;1.65;1.55;;;;;;;;;;4962108;28;20417;-73
2023/05/15 07:35:51;;;;;;;1.27;1.23;;;;;;;;;;4960041;28;20057;-73
2023/05/15 07:38:18;;;;;;;1.40;1.40;;;;;;;;;;4958978;28;20244;-73
2023/05/15 07:40:46;;;;;;;1.30;1.20;;;;;;;;;;4960896;28;20390;-73
2023/05/15 07:43:48;;;;;;;1.63;1.63;;;;;;;;;;4961815;28;20035;-79
2023/05/15 07:46:17;;;;;;;1.55;1.45;;;;;;;;;;4954901;28;20487;-80
2023/05/15 07:48:46;;;;;;;1.50;1.40;;;;;;;;;;4928995;29;20461;-81
2023/05/15 07:51:14;;;;;;;1.60;1.50;;;;;;;;;;4941104;28;20678;-79
2023/05/15 07:53:43;;;;;;;1.25;1.25;;;;;;;;;;4926138;29;20059;-79
2023/05/15 07:56:13;;;;;;;1.55;1.48;;;;;;;;;;4947199;28;20059;-77
2023/05/15 07:58:41;;;;;;;1.60;1.50;;;;;;;;;;4946878;28;20465;-79
2023/05/15 08:01:10;;;;;;;1.65;1.27;;;;;;;;;;4949593;28;20044;-81
2023/05/15 08:03:38;;;;;;;1.60;1.50;;;;;;;;;;4950986;28;20043;-78
2023/05/15 08:06:07;;;;;;;1.50;1.50;;;;;;;;;;4950873;29;20082;-79
2023/05/15 08:08:35;;;;;;;1.33;1.33;;;;;;;;;;4952193;28;20588;-78
2023/05/15 08:11:04;;;;;;;1.30;1.30;;;;;;;;;;4930880;29;20330;-77
2023/05/15 08:13:32;;;;;;;1.30;1.30;;;;;;;;;;4948707;29;20058;-79
2023/05/15 08:16:01;;;;;;;1.58;1.10;;;;;;;;;;4947456;28;20501;-76
2023/05/15 08:18:29;;;;;;;1.20;1.20;;;;;;;;;;4951620;28;20050;-77
2023/05/15 08:20:58;;;;;;;1.50;1.50;;;;;;;;;;4949517;28;20482;-77
2023/05/15 08:23:31;;;;;;;1.40;1.40;;;;;;;;;;4948918;28;20058;-77
2023/05/15 08:25:59;;;;;;;1.05;1.05;;;;;;;;;;4945663;28;20075;-78
2023/05/15 08:28:27;;;;;;;1.10;1.10;;;;;;;;;;4947421;28;20054;-77
2023/05/15 08:30:56;;;;;;;1.35;1.25;;;;;;;;;;4944978;28;20125;-77
2023/05/15 08:33:24;;;;;;;1.13;1.13;;;;;;;;;;4936382;28;20446;-77
2023/05/15 08:35:53;;;;;;;1.13;1.02;;;;;;;;;;4939546;28;20833;-77
2023/05/15 08:38:22;;;;;;;0.95;0.95;;;;;;;;;;4947142;28;20043;-79
2023/05/15 08:40:52;;;;;;;0.93;0.93;;;;;;;;;;4948490;28;20496;-78
2023/05/15 08:43:21;;;;;;;1.23;1.23;;;;;;;;;;4948026;28;20066;-77
2023/05/15 08:45:49;;;;;;;1.02;1.02;;;;;;;;;;4952412;28;20055;-76
2023/05/15 08:48:21;;;;;;;1.20;1.20;;;;;;;;;;4947805;28;20062;-77
2023/05/15 08:50:50;;;;;;;;;;;;;;;;;;4951250;28;20051;-76
2023/05/15 08:53:19;;;;;;;1.52;1.52;;;;;;;;;;4947627;28;19984;-76
2023/05/15 08:55:47;;;;;;;1.48;1.25;;;;;;;;;;4946465;28;20644;-76
2023/05/15 08:58:20;;;;;;;1.00;1.00;;;;;;;;;;4943660;28;20051;-77
2023/05/15 09:00:48;;;;;;;1.10;1.10;;;;;;;;;;4944614;28;20047;-76
2023/05/15 09:03:18;;;;;;;0.80;0.80;;;;;;;;;;4945499;28;20043;-77
2023/05/15 09:05:47;;;;;;;0.93;0.93;;;;;;;;;;4950042;28;20128;-77
2023/05/15 09:08:17;;;;;;;0.90;0.90;;;;;;;;;;4946228;29;20055;-78
2023/05/15 09:10:45;;;;;;;0.98;0.98;;;;;;;;;;4944173;28;20051;-77
2023/05/15 09:13:14;;;;;;;1.02;1.02;;;;;;;;;;4946867;28;20056;-77
2023/05/15 09:15:42;;;;;;;1.00;1.00;;;;;;;;;;4946702;28;20408;-76
2023/05/15 09:18:11;;;;;;;3.00;1.10;;;;;;;;;;4947201;28;20568;-76
2023/05/15 09:20:39;;;;;;;1.13;1.13;;;;;;;;;;4928365;28;20111;-77
2023/05/15 09:23:23;;;;;;;1.00;1.00;;;;;;;;;;4947092;28;20182;-77
2023/05/15 09:25:54;;;;;;;1.38;1.38;;;;;;;;;;4947197;28;20134;-77
2023/05/15 09:28:26;;;;;;;1.23;1.00;;;;;;;;;;4947124;28;20047;-77
2023/05/15 09:30:59;;;;;;;1.30;1.20;;;;;;;;;;4947214;28;20062;-77
2023/05/15 09:33:32;;;;;;;1.45;1.35;;;;;;;;;;4932905;28;20082;-77
2023/05/15 09:36:00;;;;;;;1.48;1.38;;;;;;;;;;4960411;28;20047;-79
2023/05/15 09:38:29;;;;;;;1.30;1.20;;;;;;;;;;4962479;28;20460;-78
2023/05/15 09:41:02;;;;;;;0.93;0.93;;;;;;;;;;4944179;28;20039;-77
2023/05/15 09:43:34;;;;;;;1.00;1.00;;;;;;;;;;4959699;28;20046;-78
2023/05/15 09:46:03;;;;;;;0.95;0.95;;;;;;;;;;4962048;28;20051;-76
2023/05/15 09:48:32;;;;;;;1.20;1.20;;;;;;;;;;4960208;28;20050;-77
2023/05/15 09:51:01;;;;;;;2.05;1.95;;;;;;;;;;4949579;28;20200;-77
2023/05/15 09:53:30;;;;;;;1.60;1.50;;;;;;;;;;4947910;28;20047;-79
2023/05/15 09:55:59;;;;;;;1.17;1.08;;;;;;;;;;4951657;28;20424;-80
2023/05/15 09:58:35;;;;;;;1.30;1.20;;;;;;;;;;4954340;28;20050;-78
2023/05/15 10:01:10;;;;;;;1.38;1.10;;;;;;;;;;4947533;28;20094;-77
2023/05/15 10:03:42;;;;;;;1.48;1.02;;;;;;;;;;4947518;28;20055;-77
2023/05/15 10:06:18;;;;;;;1.20;1.10;;;;;;;;;;4949695;28;20051;-78
2023/05/15 10:08:57;;;;;;;1.05;1.05;;;;;;;;;;4949860;28;20156;-77
2023/05/15 10:11:36;;;;;;;0.90;0.90;;;;;;;;;;4948092;28;20532;-78
2023/05/15 10:14:08;;;;;;;1.10;1.10;;;;;;;;;;4929695;28;20739;-77
2023/05/15 10:16:36;;;;;;;0.80;0.80;;;;;;;;;;4933542;28;20043;-78
2023/05/15 10:19:04;;;;;;;1.13;1.02;;;;;;;;;;4952701;28;20142;-77
2023/05/15 10:21:35;;;;;;;1.20;1.20;;;;;;;;;;4937097;29;20394;-77
2023/05/15 10:24:08;;;;;;;0.90;0.90;;;;;;;;;;4945396;28;20043;-77
2023/05/15 10:26:39;;;;;;;1.70;1.60;;;;;;;;;;4929955;29;20054;-77
2023/05/15 10:29:12;;;;;;;1.15;1.15;;;;;;;;;;4937034;28;20074;-77
2023/05/15 10:31:41;;;;;;;1.10;1.10;;;;;;;;;;4947059;28;20043;-78
2023/05/15 10:34:09;;;;;;;1.10;1.10;;;;;;;;;;4930380;29;20061;-78
2023/05/15 10:36:37;;;;;;;1.25;1.25;;;;;;;;;;4946047;28;20132;-77
2023/05/15 10:39:07;;;;;;;1.10;1.10;;;;;;;;;;4932008;28;20142;-77
2023/05/15 10:41:42;;;;;;;1.05;1.05;;;;;;;;;;4946577;28;20049;-77
2023/05/15 10:44:10;;;;;;;1.20;1.00;;;;;;;;;;4947728;28;20047;-77
2023/05/15 10:46:38;;;;;;;0.80;0.80;;;;;;;;;;4947910;28;20047;-76
2023/05/15 10:49:05;;;;;;;0.95;0.95;;;;;;;;;;4949076;28;20055;-77
2023/05/15 10:51:35;;;;;;;0.60;0.60;;;;;;;;;;4947805;28;20438;-76
2023/05/15 10:54:04;;;;;;;2.80;1.20;;;;;;;;;;4948404;28;20093;-77
2023/05/15 10:56:34;;;;;;;0.80;0.80;;;;;;;;;;4947597;28;20047;-76
2023/05/15 10:59:05;;;;;;;;;;;;;;;;;;4950189;28;20079;-76
2023/05/15 11:01:37;;;;;;;0.98;0.98;;;;;;;;;;4955258;28;20384;-76
2023/05/15 11:04:09;;;;;;;0.77;0.77;;;;;;;;;;4930984;28;20218;-77
2023/05/15 11:06:37;;;;;;;0.80;0.80;;;;;;;;;;4948374;28;20054;-77
2023/05/15 11:09:23;;;;;;;0.70;0.70;;;;;;;;;;4950539;28;20054;-77
2023/05/15 11:11:55;;;;;;;1.83;1.15;;;;;;;;;;4947619;28;20591;-76
2023/05/15 11:14:23;;;;;;;0.90;0.90;;;;;;;;;;4948605;28;20051;-77
2023/05/15 11:16:54;;;;;;;1.00;1.00;;;;;;;;;;4949161;28;20782;-76
2023/05/15 11:19:31;;;;;;;0.80;0.80;;;;;;;;;;4948338;28;20047;-76
2023/05/15 11:22:03;;;;;;;1.00;1.00;;;;;;;;;;4944685;28;20414;-76
2023/05/15 11:24:31;;;;;;;0.98;0.98;;;;;;;;;;4944928;28;20055;-77
2023/05/15 11:27:02;;;;;;;0.82;0.82;;;;;;;;;;4947988;28;20078;-76
2023/05/15 11:29:30;;;;;;;;;;;;;;;;;;4943999;28;20085;-76
2023/05/15 11:31:58;;;;;;;0.80;0.80;;;;;;;;;;4937651;28;19980;-76
2023/05/15 11:34:30;;;;;;;0.70;0.70;;;;;;;;;;4949900;28;20048;-78
2023/05/15 11:37:01;;;;;;;0.80;0.80;;;;;;;;;;4944143;28;20043;-77
2023/05/15 11:39:29;;;;;;;0.90;0.90;;;;;;;;;;4948840;28;20051;-78
2023/05/15 11:41:56;;;;;;;0.82;0.82;;;;;;;;;;4948876;28;20043;-78
2023/05/15 11:44:27;;;;;;;0.93;0.93;;;;;;;;;;4948961;28;20408;-77
2023/05/15 11:46:55;;;;;;;0.90;0.90;;;;;;;;;;4948353;28;20673;-78
2023/05/15 11:49:24;;;;;;;0.80;0.80;;;;;;;;;;4949302;28;20109;-78
2023/05/15 11:51:51;;;;;;;0.82;0.82;;;;;;;;;;4948656;28;20130;-78
2023/05/15 11:54:19;;;;;;;0.82;0.80;;;;;;;;;;4953352;28;20394;-78
2023/05/15 11:56:46;;;;;;;0.60;0.60;;;;;;;;;;4931302;28;20058;-76
2023/05/15 11:59:14;;;;;;;0.88;0.80;;;;;;;;;;4948970;28;20133;-77
2023/05/15 12:01:42;;;;;;;0.60;0.60;;;;;;;;;;4949886;28;20149;-77
2023/05/15 12:04:15;;;;;;;0.63;0.60;;;;;;;;;;4948723;28;20094;-77
2023/05/15 12:06:48;;;;;;;0.60;0.60;;;;;;;;;;4947566;28;20058;-76
2023/05/15 12:09:21;;;;;;;0.80;0.80;;;;;;;;;;4947995;28;20051;-77
2023/05/15 12:11:52;;;;;;;0.80;0.80;;;;;;;;;;4948534;28;20062;-75
2023/05/15 12:14:28;;;;;;;0.60;0.60;;;;;;;;;;4949032;28;20047;-79
2023/05/15 12:17:01;;;;;;;0.60;0.60;;;;;;;;;;4948817;28;20043;-76
2023/05/15 12:19:29;;;;;;;0.90;0.90;;;;;;;;;;4948710;28;20043;-77
2023/05/15 12:21:57;;;;;;;0.57;0.57;;;;;;;;;;4948324;28;20039;-76
2023/05/15 12:24:25;;;;;;;0.80;0.80;;;;;;;;;;4948326;28;20146;-76
2023/05/15 12:26:53;;;;;;;0.80;0.80;;;;;;;;;;4948946;28;20414;-78
2023/05/15 12:29:23;;;;;;;0.60;0.60;;;;;;;;;;4949414;28;20043;-77
2023/05/15 12:31:52;;;;;;;0.90;0.90;;;;;;;;;;4949138;28;20057;-77
2023/05/15 12:34:21;;;;;;;0.77;0.77;;;;;;;;;;4950768;28;20126;-79
2023/05/15 12:36:49;;;;;;;0.70;0.70;;;;;;;;;;4948128;28;20721;-77
2023/05/15 12:39:21;;;;;;;1.20;1.10;;;;;;;;;;4949619;28;20082;-77
2023/05/15 12:41:58;;;;;;;1.48;0.80;;;;;;;;;;4950855;28;20047;-76
2023/05/15 12:44:57;;;;;;;0.77;0.77;;;;;;;;;;4953735;28;20047;-75
2023/05/15 12:47:28;;;;;;;0.93;0.93;;;;;;;;;;4950137;28;20209;-76
2023/05/15 12:50:02;;;;;;;0.50;0.50;;;;;;;;;;4950130;28;20438;-76
2023/05/15 12:52:34;;;;;;;0.80;0.80;;;;;;;;;;4939542;29;20043;-77
2023/05/15 12:55:06;;;;;;;0.70;0.70;;;;;;;;;;4949012;28;20077;-76
2023/05/15 12:57:35;;;;;;;0.90;0.90;;;;;;;;;;4943448;28;20047;-78
2023/05/15 13:00:04;;;;;;;1.48;1.38;;;;;;;;;;4949225;28;20035;-76
2023/05/15 13:02:31;;;;;;;1.15;1.05;;;;;;;;;;4930570;29;20450;-77
2023/05/15 13:05:01;;;;;;;0.80;0.80;;;;;;;;;;4950473;28;20057;-76
2023/05/15 13:07:29;;;;;;;0.60;0.60;;;;;;;;;;4947884;28;20169;-75
2023/05/15 13:10:06;;;;;;;1.13;0.80;;;;;;;;;;4948279;28;20232;-77
2023/05/15 13:12:39;;;;;;;0.98;0.98;;;;;;;;;;4948148;28;20134;-75
2023/05/15 13:15:21;;;;;;;0.90;0.90;;;;;;;;;;4952450;29;20043;-76
2023/05/15 13:17:55;;;;;;;0.70;0.70;;;;;;;;;;4936617;29;20438;-79
2023/05/15 13:20:24;;;;;;;1.35;1.27;;;;;;;;;;4951522;28;20049;-78
2023/05/15 13:22:52;;;;;;;1.77;0.90;;;;;;;;;;4950598;28;20051;-76
2023/05/15 13:25:21;;;;;;;1.00;0.90;;;;;;;;;;4952159;28;20048;-77
2023/05/15 13:27:48;;;;;;;0.80;0.60;;;;;;;;;;4950944;28;20043;-76
2023/05/15 13:30:17;;;;;;;0.63;0.63;;;;;;;;;;4950227;28;20524;-79
2023/05/15 13:32:44;;;;;;;0.60;0.60;;;;;;;;;;4952762;28;20428;-76
2023/05/15 13:35:12;;;;;;;1.98;1.00;;;;;;;;;;4951865;28;20047;-77
2023/05/15 13:37:39;;;;;;;0.50;0.50;;;;;;;;;;4954342;28;20043;-77
2023/05/15 13:40:08;;;;;;;0.70;0.70;;;;;;;;;;4954101;28;20055;-76
2023/05/15 13:42:47;;;;;;;0.80;0.80;;;;;;;;;;5024713;23;20054;-88
2023/05/15 13:45:59;;;;;;;1.02;1.02;;;;;;;;;;4977171;28;20129;-90
2023/05/15 13:48:29;;;;;;;0.70;0.70;;;;;;;;;;4974608;28;20042;-88
2023/05/15 13:54:23;;;;;;;0.80;0.80;;;;;;;;;;4975279;28;20034;-89
2023/05/15 13:56:54;;;;;;;0.68;0.63;;;;;;;;;;4976585;28;20074;-88
2023/05/15 14:00:27;;;;;;;0.80;0.80;;;;;;;;;;4935115;28;20062;-88
2023/05/15 14:03:06;;;;;;;0.70;0.70;;;;;;;;;;4975059;28;20145;-90
2023/05/15 14:09:23;;;;;;;0.60;0.60;;;;;;;;;;4984270;28;20058;-89
2023/05/15 14:12:21;;;;;;;0.95;0.95;;;;;;;;;;4972965;28;20046;-86
2023/05/15 14:15:14;;;;;;;0.85;0.85;;;;;;;;;;4971126;28;20058;-90
2023/05/15 14:18:09;;;;;;;0.85;0.85;;;;;;;;;;4976190;28;20043;-91
2023/05/15 14:21:35;;;;;;;0.80;0.80;;;;;;;;;;4976499;28;20057;-87
2023/05/15 14:25:07;;;;;;;1.10;1.10;;;;;;;;;;4971888;28;20075;-90
2023/05/15 14:27:37;;;;;;;1.13;1.13;;;;;;;;;;4994071;28;20026;-86
2023/05/15 14:30:15;;;;;;;1.10;1.10;;;;;;;;;;4937795;23;1629808;-76
2023/05/15 14:32:42;;;;;;;0.90;0.90;;;;;;;;;;4986925;28;20133;-76
2023/05/15 14:35:10;;;;;;;1.10;1.00;;;;;;;;;;4967348;28;20055;-76
2023/05/15 14:37:37;;;;;;;2.95;1.15;;;;;;;;;;4967580;28;20043;-76
2023/05/15 14:40:06;;;;;;;1.42;1.42;;;;;;;;;;4967541;28;20505;-76
2023/05/15 14:42:34;;;;;;;1.60;1.50;;;;;;;;;;4967434;28;20493;-76
2023/05/15 14:45:01;;;;;;;1.60;1.50;;;;;;;;;;4967969;28;20401;-75
2023/05/15 14:47:30;;;;;;;1.40;1.40;;;;;;;;;;4967097;28;20057;-76
2023/05/15 14:49:57;;;;;;;1.67;1.40;;;;;;;;;;4964582;28;20773;-76
2023/05/15 14:52:24;;;;;;;1.65;1.35;;;;;;;;;;4966852;28;20299;-76
2023/05/15 14:54:52;;;;;;;1.45;1.10;;;;;;;;;;4967551;28;20050;-76
2023/05/15 14:57:34;;;;;;;2.83;1.20;;;;;;;;;;4967189;28;20062;-75
2023/05/15 15:00:03;;;;;;;1.33;1.30;;;;;;;;;;4967185;28;20046;-76
2023/05/15 15:02:31;;;;;;;1.33;1.23;;;;;;;;;;4967221;28;20047;-76
2023/05/15 15:04:58;;;;;;;1.20;1.20;;;;;;;;;;4967421;28;20424;-76
2023/05/15 15:07:27;;;;;;;1.10;1.10;;;;;;;;;;4965481;28;20050;-76
2023/05/15 15:09:55;;;;;;;1.10;1.10;;;;;;;;;;4961253;28;20051;-76
2023/05/15 15:12:22;;;;;;;0.82;0.82;;;;;;;;;;4964453;28;20062;-76
2023/05/15 15:14:50;;;;;;;1.10;1.00;;;;;;;;;;4967361;28;20517;-76
2023/05/15 15:17:17;;;;;;;0.80;0.80;;;;;;;;;;4965877;28;20054;-76
2023/05/15 15:19:45;;;;;;;1.20;1.20;;;;;;;;;;4966850;28;20051;-76
2023/05/15 15:22:12;;;;;;;1.00;1.00;;;;;;;;;;4966224;28;20453;-75
2023/05/15 15:24:39;;;;;;;0.95;0.82;;;;;;;;;;4966123;28;20460;-75
2023/05/15 15:27:07;;;;;;;0.93;0.93;;;;;;;;;;4966091;28;20532;-76
2023/05/15 15:29:34;;;;;;;0.90;0.90;;;;;;;;;;4965621;28;20074;-76
2023/05/15 15:32:02;;;;;;;0.90;0.90;;;;;;;;;;4960403;28;20105;-76
2023/05/15 15:34:30;;;;;;;0.70;0.70;;;;;;;;;;4966624;28;20078;-76
2023/05/15 15:36:57;;;;;;;0.90;0.90;;;;;;;;;;4965982;28;20035;-76
2023/05/15 15:39:25;;;;;;;1.00;1.00;;;;;;;;;;4966457;28;20127;-76
2023/05/15 15:41:53;;;;;;;1.05;1.05;;;;;;;;;;4967066;28;20424;-76
2023/05/15 15:44:21;;;;;;;1.10;1.10;;;;;;;;;;4960947;28;20035;-76
2023/05/15 15:46:49;;;;;;;1.00;1.00;;;;;;;;;;4966612;28;20175;-76
2023/05/15 15:49:16;;;;;;;1.05;1.05;;;;;;;;;;4965829;28;20065;-76
2023/05/15 15:51:43;;;;;;;0.90;0.90;;;;;;;;;;4965742;28;20416;-76
2023/05/15 15:54:11;;;;;;;1.98;1.30;;;;;;;;;;4966542;28;20212;-76
2023/05/15 15:56:39;;;;;;;0.90;0.90;;;;;;;;;;4966266;28;20054;-76